Time;durP1;ratioP1;P1;durP2;ratioP2;P2;SDS_P1;SDS_P2;PMS_P1;PMS_P2;Temp;Humidity;BMP_temperature;BMP_pressure;BME280_temperature;BME280_humidity;BME280_pressure;Samples;Min_cycle;Max_cycle;Signal;HPM_P1;HPM_P2
2021/06/14 00:01:51;;;;;;;6.35;3.22;;;;;;;;;;5032846;28;20041;-76
2021/06/14 00:04:17;;;;;;;7.05;3.15;;;;;;;;;;5031495;28;20029;-77
2021/06/14 00:06:42;;;;;;;7.38;3.00;;;;;;;;;;5033244;28;20051;-76
2021/06/14 00:09:08;;;;;;;7.15;3.38;;;;;;;;;;5032909;28;20042;-77
2021/06/14 00:11:33;;;;;;;4.40;2.85;;;;;;;;;;5037271;28;20040;-76
2021/06/14 00:13:59;;;;;;;5.93;2.95;;;;;;;;;;5051878;28;20033;-76
2021/06/14 00:16:24;;;;;;;7.50;3.80;;;;;;;;;;5043710;28;20414;-76
2021/06/14 00:18:50;;;;;;;8.65;3.55;;;;;;;;;;5033163;28;20040;-77
2021/06/14 00:21:17;;;;;;;8.52;3.08;;;;;;;;;;5033062;28;20034;-77
2021/06/14 00:23:43;;;;;;;8.45;3.15;;;;;;;;;;5036259;28;20432;-75
2021/06/14 00:26:11;;;;;;;6.28;2.53;;;;;;;;;;5036693;28;20025;-75
2021/06/14 00:28:39;;;;;;;5.00;3.10;;;;;;;;;;5036776;28;20549;-76
2021/06/14 00:31:04;;;;;;;8.65;3.83;;;;;;;;;;5036997;28;20045;-76
2021/06/14 00:33:30;;;;;;;5.35;3.03;;;;;;;;;;5040129;28;20076;-75
2021/06/14 00:35:55;;;;;;;10.25;3.30;;;;;;;;;;5052445;28;20037;-77
2021/06/14 00:38:22;;;;;;;5.88;2.20;;;;;;;;;;5056854;28;20108;-77
2021/06/14 00:40:48;;;;;;;9.18;4.28;;;;;;;;;;5055370;28;20120;-77
2021/06/14 00:43:15;;;;;;;8.43;4.28;;;;;;;;;;5056164;28;20036;-76
2021/06/14 00:45:44;;;;;;;8.13;3.30;;;;;;;;;;5056417;28;20124;-75
2021/06/14 00:48:10;;;;;;;5.10;3.33;;;;;;;;;;5049699;28;20036;-75
2021/06/14 00:50:47;;;;;;;4.00;2.90;;;;;;;;;;5036031;28;20044;-75
2021/06/14 00:53:25;;;;;;;4.60;3.20;;;;;;;;;;5035393;28;20037;-76
2021/06/14 00:55:52;;;;;;;5.13;2.92;;;;;;;;;;5036353;28;20048;-76
2021/06/14 00:58:19;;;;;;;5.85;2.80;;;;;;;;;;5036148;28;20037;-75
2021/06/14 01:00:45;;;;;;;5.50;2.50;;;;;;;;;;5036512;28;20034;-75
2021/06/14 01:03:13;;;;;;;6.68;3.60;;;;;;;;;;5035186;28;20112;-75
2021/06/14 01:05:43;;;;;;;7.72;3.03;;;;;;;;;;5036529;28;20175;-75
2021/06/14 01:08:10;;;;;;;11.07;3.83;;;;;;;;;;5035968;28;20025;-75
2021/06/14 01:10:39;;;;;;;8.45;4.00;;;;;;;;;;5036304;28;20037;-75
2021/06/14 01:13:37;;;;;;;9.27;4.03;;;;;;;;;;5052852;28;20490;-75
2021/06/14 01:16:28;;;;;;;7.88;3.55;;;;;;;;;;5054294;28;20045;-75
2021/06/14 01:19:12;;;;;;;9.85;3.55;;;;;;;;;;5046432;28;20524;-75
2021/06/14 01:21:45;;;;;;;5.22;3.25;;;;;;;;;;5046205;28;20040;-76
2021/06/14 01:24:44;;;;;;;11.23;4.13;;;;;;;;;;5035920;28;20029;-75
2021/06/14 01:27:11;;;;;;;6.03;3.58;;;;;;;;;;5035600;28;20426;-75
2021/06/14 01:29:43;;;;;;;11.98;4.07;;;;;;;;;;5019073;28;20033;-75
2021/06/14 01:32:12;;;;;;;5.45;3.03;;;;;;;;;;5034781;28;20467;-75
2021/06/14 01:34:40;;;;;;;11.32;3.60;;;;;;;;;;5034514;28;20048;-75
2021/06/14 01:37:07;;;;;;;9.10;3.47;;;;;;;;;;5034587;28;20044;-75
2021/06/14 01:39:39;;;;;;;5.82;2.90;;;;;;;;;;5035547;28;20036;-75
2021/06/14 01:42:08;;;;;;;10.40;3.65;;;;;;;;;;5043143;28;20037;-75
2021/06/14 01:44:36;;;;;;;5.05;2.72;;;;;;;;;;5053997;28;20438;-75
2021/06/14 01:47:05;;;;;;;6.63;3.17;;;;;;;;;;5054138;28;20029;-76
2021/06/14 01:49:31;;;;;;;14.60;3.22;;;;;;;;;;5048806;28;20447;-75
2021/06/14 01:52:06;;;;;;;8.88;3.00;;;;;;;;;;5033795;28;20037;-75
2021/06/14 01:54:32;;;;;;;6.43;3.00;;;;;;;;;;5048318;28;20033;-75
2021/06/14 01:57:07;;;;;;;8.18;3.75;;;;;;;;;;5037048;28;20048;-75
2021/06/14 01:59:57;;;;;;;9.40;4.07;;;;;;;;;;5041642;28;20112;-75
2021/06/14 02:02:43;;;;;;;8.95;3.33;;;;;;;;;;5046302;28;20369;-76
2021/06/14 02:05:20;;;;;;;7.95;3.13;;;;;;;;;;5018956;28;20034;-76
2021/06/14 02:07:47;;;;;;;9.52;3.63;;;;;;;;;;5047484;28;20036;-76
2021/06/14 02:10:13;;;;;;;7.65;3.45;;;;;;;;;;5045722;28;20025;-76
2021/06/14 02:12:41;;;;;;;10.68;3.53;;;;;;;;;;5053566;28;20082;-75
2021/06/14 02:15:10;;;;;;;12.30;4.18;;;;;;;;;;5053754;28;20547;-76
2021/06/14 02:17:40;;;;;;;8.48;3.22;;;;;;;;;;5053840;28;20040;-74
2021/06/14 02:20:07;;;;;;;5.32;3.10;;;;;;;;;;5046981;28;20041;-75
2021/06/14 02:22:37;;;;;;;11.75;3.63;;;;;;;;;;5041424;28;20034;-73
2021/06/14 02:25:06;;;;;;;7.47;3.30;;;;;;;;;;5040252;28;20061;-74
2021/06/14 02:27:31;;;;;;;7.20;3.47;;;;;;;;;;5034423;28;20106;-75
2021/06/14 02:29:57;;;;;;;7.88;4.20;;;;;;;;;;5034568;28;20744;-74
2021/06/14 02:32:23;;;;;;;12.43;3.35;;;;;;;;;;5034963;28;20037;-75
2021/06/14 02:34:49;;;;;;;6.80;3.20;;;;;;;;;;5034774;28;20040;-74
2021/06/14 02:37:17;;;;;;;11.48;3.35;;;;;;;;;;5033368;28;20037;-75
2021/06/14 02:39:45;;;;;;;3.40;2.30;;;;;;;;;;5034731;28;20040;-75
2021/06/14 02:42:11;;;;;;;6.60;4.03;;;;;;;;;;5043479;28;21236;-75
2021/06/14 02:44:37;;;;;;;7.80;2.55;;;;;;;;;;5052123;28;20123;-75
2021/06/14 02:47:09;;;;;;;7.90;3.70;;;;;;;;;;5052938;28;20037;-75
2021/06/14 02:49:35;;;;;;;8.88;3.38;;;;;;;;;;5048031;28;20032;-74
2021/06/14 02:52:05;;;;;;;8.30;4.20;;;;;;;;;;5038105;28;20029;-75
2021/06/14 02:54:37;;;;;;;7.78;3.72;;;;;;;;;;5037177;28;20032;-74
2021/06/14 02:57:08;;;;;;;9.27;3.85;;;;;;;;;;5045035;28;20071;-78
2021/06/14 02:59:35;;;;;;;13.20;3.83;;;;;;;;;;5049885;28;20514;-77
2021/06/14 03:02:02;;;;;;;7.38;3.60;;;;;;;;;;5045104;28;20063;-78
2021/06/14 03:04:30;;;;;;;6.82;3.30;;;;;;;;;;5050792;28;20116;-75
2021/06/14 03:06:55;;;;;;;8.63;3.33;;;;;;;;;;5053900;28;20029;-76
2021/06/14 03:09:26;;;;;;;7.68;2.83;;;;;;;;;;5052462;28;20037;-75
2021/06/14 03:11:52;;;;;;;7.65;3.30;;;;;;;;;;5053734;28;20072;-76
2021/06/14 03:14:21;;;;;;;8.27;3.63;;;;;;;;;;5052669;28;20074;-76
2021/06/14 03:16:47;;;;;;;6.50;3.33;;;;;;;;;;5053767;28;20061;-76
2021/06/14 03:19:15;;;;;;;8.13;3.45;;;;;;;;;;5047385;28;20087;-76
2021/06/14 03:21:42;;;;;;;9.27;3.72;;;;;;;;;;5039218;28;20036;-75
2021/06/14 03:24:14;;;;;;;11.13;4.47;;;;;;;;;;5041200;28;20055;-76
2021/06/14 03:26:42;;;;;;;6.40;4.15;;;;;;;;;;5036716;28;20024;-75
2021/06/14 03:29:10;;;;;;;8.57;3.75;;;;;;;;;;5032871;28;20029;-76
2021/06/14 03:31:37;;;;;;;8.13;3.25;;;;;;;;;;5033826;28;20522;-75
2021/06/14 03:34:03;;;;;;;7.75;3.72;;;;;;;;;;5033179;28;20041;-75
2021/06/14 03:36:30;;;;;;;9.27;3.50;;;;;;;;;;5031934;28;20136;-76
2021/06/14 03:38:56;;;;;;;4.63;2.80;;;;;;;;;;5033701;28;20060;-75
2021/06/14 03:41:22;;;;;;;5.63;2.88;;;;;;;;;;5036355;28;20037;-76
2021/06/14 03:43:48;;;;;;;8.10;3.17;;;;;;;;;;5052841;28;20033;-75
2021/06/14 03:46:14;;;;;;;8.73;3.47;;;;;;;;;;5052239;28;20067;-75
2021/06/14 03:48:40;;;;;;;8.02;4.38;;;;;;;;;;5051635;28;20037;-76
2021/06/14 03:51:06;;;;;;;10.82;4.32;;;;;;;;;;5046267;28;20033;-75
2021/06/14 03:53:33;;;;;;;8.45;3.78;;;;;;;;;;5044512;28;20029;-76
2021/06/14 03:56:09;;;;;;;6.28;3.80;;;;;;;;;;5035300;28;20034;-76
2021/06/14 03:58:36;;;;;;;9.85;3.72;;;;;;;;;;5032526;28;20434;-76
2021/06/14 04:01:02;;;;;;;7.43;3.30;;;;;;;;;;5045168;28;20029;-76
2021/06/14 04:03:29;;;;;;;10.02;3.85;;;;;;;;;;5032934;28;20057;-76
2021/06/14 04:05:55;;;;;;;13.13;3.47;;;;;;;;;;5031996;28;20557;-77
2021/06/14 04:08:28;;;;;;;9.77;3.42;;;;;;;;;;5032060;28;20034;-77
2021/06/14 04:10:53;;;;;;;8.90;3.65;;;;;;;;;;5032080;28;20048;-75
2021/06/14 04:13:19;;;;;;;11.82;4.38;;;;;;;;;;5051665;28;20090;-76
2021/06/14 04:15:45;;;;;;;9.35;3.75;;;;;;;;;;5052708;28;20402;-75
2021/06/14 04:18:10;;;;;;;11.93;3.55;;;;;;;;;;5052702;28;20068;-76
2021/06/14 04:20:37;;;;;;;7.78;4.13;;;;;;;;;;5046523;28;20041;-75
2021/06/14 04:23:02;;;;;;;7.90;3.80;;;;;;;;;;5037555;28;20025;-76
2021/06/14 04:25:28;;;;;;;8.88;4.05;;;;;;;;;;5040521;28;20482;-78
2021/06/14 04:27:53;;;;;;;9.82;4.25;;;;;;;;;;5037542;28;20116;-76
2021/06/14 04:30:19;;;;;;;8.02;4.22;;;;;;;;;;5035135;28;20033;-76
2021/06/14 04:32:45;;;;;;;8.73;4.50;;;;;;;;;;5052735;28;20036;-76
2021/06/14 04:35:11;;;;;;;7.40;4.60;;;;;;;;;;5051359;28;20403;-76
2021/06/14 04:37:37;;;;;;;7.88;4.05;;;;;;;;;;5051580;28;20088;-76
2021/06/14 04:40:05;;;;;;;10.65;4.80;;;;;;;;;;5052708;28;20040;-76
2021/06/14 04:42:30;;;;;;;11.55;4.90;;;;;;;;;;5052580;28;20037;-76
2021/06/14 04:44:55;;;;;;;12.90;5.60;;;;;;;;;;5052089;28;20136;-76
2021/06/14 04:47:21;;;;;;;9.15;4.18;;;;;;;;;;5052316;28;20044;-76
2021/06/14 04:49:47;;;;;;;9.90;4.07;;;;;;;;;;5052813;28;20037;-76
2021/06/14 04:52:13;;;;;;;8.55;4.57;;;;;;;;;;5046196;28;20058;-75
2021/06/14 04:54:39;;;;;;;5.82;4.10;;;;;;;;;;5037635;28;20057;-76
2021/06/14 04:57:05;;;;;;;8.77;4.55;;;;;;;;;;5032752;28;20068;-76
2021/06/14 04:59:31;;;;;;;15.38;4.72;;;;;;;;;;5032226;28;20460;-75
2021/06/14 05:01:56;;;;;;;6.90;3.65;;;;;;;;;;5044633;28;20111;-76
2021/06/14 05:04:22;;;;;;;9.85;4.82;;;;;;;;;;5052652;28;20043;-75
2021/06/14 05:06:47;;;;;;;12.90;4.85;;;;;;;;;;5052429;28;20075;-76
2021/06/14 05:09:13;;;;;;;15.85;5.28;;;;;;;;;;5054692;28;20029;-76
2021/06/14 05:11:38;;;;;;;13.32;4.88;;;;;;;;;;5056268;28;20040;-75
2021/06/14 05:14:04;;;;;;;9.05;4.82;;;;;;;;;;5056257;28;20064;-76
2021/06/14 05:16:29;;;;;;;13.75;5.00;;;;;;;;;;5055796;28;20137;-78
2021/06/14 05:18:55;;;;;;;9.98;4.90;;;;;;;;;;5057578;28;20032;-76
2021/06/14 05:21:21;;;;;;;17.30;5.50;;;;;;;;;;5058527;28;20079;-77
2021/06/14 05:23:46;;;;;;;8.10;4.60;;;;;;;;;;5056598;28;20036;-78
2021/06/14 05:26:12;;;;;;;6.68;4.53;;;;;;;;;;5055009;28;20033;-77
2021/06/14 05:28:37;;;;;;;7.57;4.22;;;;;;;;;;5054858;28;20107;-81
2021/06/14 05:31:04;;;;;;;16.50;5.45;;;;;;;;;;5056847;28;20025;-76
2021/06/14 05:33:30;;;;;;;12.13;5.82;;;;;;;;;;5057294;28;20443;-75
2021/06/14 05:35:55;;;;;;;10.95;5.15;;;;;;;;;;5053589;28;20076;-76
2021/06/14 05:38:21;;;;;;;10.85;5.43;;;;;;;;;;5056015;28;20063;-76
2021/06/14 05:40:46;;;;;;;14.63;5.13;;;;;;;;;;5055867;28;20124;-76
2021/06/14 05:43:12;;;;;;;8.70;5.35;;;;;;;;;;5055589;28;20090;-77
2021/06/14 05:45:37;;;;;;;10.70;5.22;;;;;;;;;;5054151;28;20072;-76
2021/06/14 05:48:03;;;;;;;11.32;5.45;;;;;;;;;;5055577;28;20510;-76
2021/06/14 05:50:29;;;;;;;7.18;4.47;;;;;;;;;;5055674;28;20072;-76
2021/06/14 05:52:54;;;;;;;14.68;5.03;;;;;;;;;;5054069;28;20060;-76
2021/06/14 05:55:19;;;;;;;13.80;4.88;;;;;;;;;;5052812;28;20079;-77
2021/06/14 05:57:45;;;;;;;15.68;4.97;;;;;;;;;;5054563;28;20040;-75
2021/06/14 06:00:11;;;;;;;15.90;5.60;;;;;;;;;;5065041;28;20495;-75
2021/06/14 06:02:41;;;;;;;11.82;5.00;;;;;;;;;;5073046;28;20075;-75
2021/06/14 06:05:07;;;;;;;13.48;5.35;;;;;;;;;;5072777;28;20521;-75
2021/06/14 06:07:34;;;;;;;10.55;4.80;;;;;;;;;;5073837;28;20441;-75
2021/06/14 06:09:59;;;;;;;7.50;4.38;;;;;;;;;;5075239;28;20488;-75
2021/06/14 06:12:25;;;;;;;12.75;5.35;;;;;;;;;;5063471;28;20040;-75
2021/06/14 06:14:50;;;;;;;13.63;5.15;;;;;;;;;;5054742;28;20041;-75
2021/06/14 06:17:16;;;;;;;13.38;4.63;;;;;;;;;;5055134;28;20094;-75
2021/06/14 06:19:41;;;;;;;10.27;4.20;;;;;;;;;;5054339;28;20040;-75
2021/06/14 06:22:06;;;;;;;11.05;4.78;;;;;;;;;;5053638;28;20190;-75
2021/06/14 06:24:32;;;;;;;9.70;4.03;;;;;;;;;;5054759;28;20056;-75
2021/06/14 06:26:59;;;;;;;11.73;4.80;;;;;;;;;;5052339;28;20037;-75
2021/06/14 06:29:25;;;;;;;9.40;5.10;;;;;;;;;;5052394;28;20041;-76
2021/06/14 06:31:50;;;;;;;14.05;4.18;;;;;;;;;;5054710;28;20040;-75
2021/06/14 06:34:16;;;;;;;7.07;3.83;;;;;;;;;;5054511;28;20037;-76
2021/06/14 06:36:41;;;;;;;11.50;5.00;;;;;;;;;;5054464;28;20028;-76
2021/06/14 06:39:06;;;;;;;12.50;3.67;;;;;;;;;;5054649;28;20115;-76
2021/06/14 06:41:32;;;;;;;7.85;3.38;;;;;;;;;;5055283;28;20148;-77
2021/06/14 06:43:57;;;;;;;12.45;4.15;;;;;;;;;;5052004;28;20083;-77
2021/06/14 06:46:23;;;;;;;14.02;4.25;;;;;;;;;;5055880;28;20045;-76
2021/06/14 06:48:48;;;;;;;9.95;3.85;;;;;;;;;;5054638;28;20040;-76
2021/06/14 06:51:13;;;;;;;9.63;4.07;;;;;;;;;;5054143;28;20048;-75
2021/06/14 06:53:39;;;;;;;7.35;3.70;;;;;;;;;;5054386;28;20044;-76
2021/06/14 06:56:05;;;;;;;13.45;4.35;;;;;;;;;;5053029;28;20036;-76
2021/06/14 06:58:31;;;;;;;10.57;3.83;;;;;;;;;;5053925;28;20048;-76
2021/06/14 07:00:58;;;;;;;13.45;3.95;;;;;;;;;;5054211;28;20068;-76
2021/06/14 07:03:23;;;;;;;9.02;3.72;;;;;;;;;;5054261;28;20078;-75
2021/06/14 07:05:49;;;;;;;11.55;4.03;;;;;;;;;;5053573;28;20041;-76
2021/06/14 07:08:15;;;;;;;8.18;3.30;;;;;;;;;;5053061;28;20512;-76
2021/06/14 07:10:41;;;;;;;11.25;3.75;;;;;;;;;;5053540;28;20036;-77
2021/06/14 07:13:07;;;;;;;12.45;4.07;;;;;;;;;;5069660;28;20123;-77
2021/06/14 07:15:33;;;;;;;8.05;4.05;;;;;;;;;;5073991;28;20028;-78
2021/06/14 07:18:00;;;;;;;7.38;3.70;;;;;;;;;;5073932;28;20041;-78
2021/06/14 07:20:27;;;;;;;7.72;4.35;;;;;;;;;;5075022;28;20036;-78
2021/06/14 07:22:53;;;;;;;12.00;3.97;;;;;;;;;;5076122;28;20036;-78
2021/06/14 07:25:18;;;;;;;7.82;3.88;;;;;;;;;;5075594;28;20036;-78
2021/06/14 07:27:44;;;;;;;9.30;4.90;;;;;;;;;;5073682;28;20036;-77
2021/06/14 07:30:14;;;;;;;9.38;5.05;;;;;;;;;;5077219;28;20064;-78
2021/06/14 07:32:40;;;;;;;12.88;5.57;;;;;;;;;;5075092;28;20044;-78
2021/06/14 07:35:06;;;;;;;15.27;5.40;;;;;;;;;;5056691;28;20051;-78
2021/06/14 07:37:32;;;;;;;14.52;6.10;;;;;;;;;;5056609;28;20036;-78
2021/06/14 07:39:57;;;;;;;9.18;5.07;;;;;;;;;;5054242;28;20560;-78
2021/06/14 07:42:23;;;;;;;10.68;5.47;;;;;;;;;;5054621;28;20415;-78
2021/06/14 07:44:48;;;;;;;11.45;4.80;;;;;;;;;;5056421;28;20360;-78
2021/06/14 07:47:14;;;;;;;8.63;5.13;;;;;;;;;;5057140;28;20498;-78
2021/06/14 07:49:41;;;;;;;8.68;5.40;;;;;;;;;;5057004;28;20033;-78
2021/06/14 07:52:07;;;;;;;7.90;4.47;;;;;;;;;;5059142;28;20044;-78
2021/06/14 07:54:33;;;;;;;8.85;4.72;;;;;;;;;;5058039;28;20056;-78
2021/06/14 07:56:59;;;;;;;8.90;5.15;;;;;;;;;;5057123;28;20041;-78
2021/06/14 07:59:24;;;;;;;10.95;4.75;;;;;;;;;;5056234;28;20041;-78
2021/06/14 08:01:50;;;;;;;14.88;4.32;;;;;;;;;;5057161;28;20112;-78
2021/06/14 08:04:15;;;;;;;10.38;5.28;;;;;;;;;;5056206;28;20477;-78
2021/06/14 08:06:40;;;;;;;7.78;3.63;;;;;;;;;;5055591;28;20044;-78
2021/06/14 08:09:09;;;;;;;16.10;5.25;;;;;;;;;;5055352;28;20045;-78
2021/06/14 08:11:36;;;;;;;8.40;4.47;;;;;;;;;;5057780;28;20018;-78
2021/06/14 08:14:02;;;;;;;8.88;3.92;;;;;;;;;;5055232;28;20032;-78
2021/06/14 08:16:28;;;;;;;14.63;5.30;;;;;;;;;;5056197;28;20086;-78
2021/06/14 08:19:06;;;;;;;8.88;3.90;;;;;;;;;;5056362;28;20471;-78
2021/06/14 08:21:56;;;;;;;8.40;3.95;;;;;;;;;;5056576;28;20037;-78
2021/06/14 08:27:06;;;;;;;13.00;4.25;;;;;;;;;;5056224;28;20095;-78
2021/06/14 08:29:32;;;;;;;9.68;4.50;;;;;;;;;;5055496;28;20029;-78
2021/06/14 08:31:57;;;;;;;7.60;3.70;;;;;;;;;;5054143;28;20509;-78
2021/06/14 08:34:23;;;;;;;13.90;3.90;;;;;;;;;;5054128;28;20043;-78
2021/06/14 08:36:48;;;;;;;9.82;3.50;;;;;;;;;;5056257;28;20068;-78
2021/06/14 08:39:14;;;;;;;8.32;3.22;;;;;;;;;;5054105;28;20044;-78
2021/06/14 08:41:42;;;;;;;7.88;3.50;;;;;;;;;;5054179;28;20079;-78
2021/06/14 08:44:09;;;;;;;7.88;3.20;;;;;;;;;;5058358;28;20503;-78
2021/06/14 08:46:35;;;;;;;4.93;2.83;;;;;;;;;;5061594;28;20115;-78
2021/06/14 08:49:01;;;;;;;7.63;3.38;;;;;;;;;;5060397;28;20044;-78
2021/06/14 08:51:27;;;;;;;7.97;3.10;;;;;;;;;;5061894;28;20037;-79
2021/06/14 08:53:52;;;;;;;6.93;2.72;;;;;;;;;;5060721;28;20033;-78
2021/06/14 08:56:20;;;;;;;7.45;3.03;;;;;;;;;;5061801;28;20120;-78
2021/06/14 08:58:50;;;;;;;4.53;2.35;;;;;;;;;;5061051;28;20475;-78
2021/06/14 09:01:16;;;;;;;9.07;2.75;;;;;;;;;;5060045;28;20040;-78
2021/06/14 09:03:41;;;;;;;6.18;2.90;;;;;;;;;;5062593;28;20067;-78
2021/06/14 09:06:07;;;;;;;5.80;2.53;;;;;;;;;;5063135;28;20036;-78
2021/06/14 09:08:32;;;;;;;7.18;2.85;;;;;;;;;;5062370;28;20068;-78
2021/06/14 09:10:58;;;;;;;6.95;2.67;;;;;;;;;;5060634;28;20387;-81
2021/06/14 09:13:29;;;;;;;7.97;2.88;;;;;;;;;;5061140;28;20033;-78
2021/06/14 09:16:13;;;;;;;7.20;2.88;;;;;;;;;;5060930;28;20120;-78
2021/06/14 09:18:41;;;;;;;5.85;2.50;;;;;;;;;;5060773;28;20398;-78
2021/06/14 09:21:12;;;;;;;5.18;3.00;;;;;;;;;;5060541;28;20037;-78
2021/06/14 09:23:49;;;;;;;10.18;2.95;;;;;;;;;;5062369;28;20052;-78
2021/06/14 09:26:29;;;;;;;9.75;2.92;;;;;;;;;;5061141;28;20037;-78
2021/06/14 09:29:06;;;;;;;7.30;3.00;;;;;;;;;;5059640;28;20037;-79
2021/06/14 09:32:09;;;;;;;6.78;2.70;;;;;;;;;;5060619;28;20043;-79
2021/06/14 09:34:36;;;;;;;5.07;2.80;;;;;;;;;;5060540;28;20061;-79
2021/06/14 09:37:05;;;;;;;5.68;2.53;;;;;;;;;;5058869;28;20116;-79
2021/06/14 09:39:36;;;;;;;8.48;2.58;;;;;;;;;;5061240;28;20111;-79
2021/06/14 09:42:12;;;;;;;5.25;2.90;;;;;;;;;;5060929;28;20044;-79
2021/06/14 09:44:37;;;;;;;7.53;2.65;;;;;;;;;;5059454;28;20060;-78
2021/06/14 09:47:05;;;;;;;9.88;2.65;;;;;;;;;;5058535;28;20041;-77
2021/06/14 09:49:32;;;;;;;4.47;2.33;;;;;;;;;;5058114;28;20037;-78
2021/06/14 09:51:57;;;;;;;15.25;2.88;;;;;;;;;;5056403;28;20044;-78
2021/06/14 09:54:28;;;;;;;9.07;2.65;;;;;;;;;;5055042;28;20037;-76
2021/06/14 09:56:54;;;;;;;3.90;2.00;;;;;;;;;;5056999;28;20060;-77
2021/06/14 09:59:32;;;;;;;7.45;2.67;;;;;;;;;;5056252;28;20044;-77
2021/06/14 10:02:19;;;;;;;5.32;2.60;;;;;;;;;;5056801;28;20036;-77
2021/06/14 10:04:47;;;;;;;5.07;2.10;;;;;;;;;;5040337;28;20041;-79
2021/06/14 10:07:16;;;;;;;9.43;2.17;;;;;;;;;;5038720;28;20057;-77
2021/06/14 10:09:52;;;;;;;4.70;2.10;;;;;;;;;;5038931;28;20529;-77
2021/06/14 10:12:17;;;;;;;4.93;2.40;;;;;;;;;;5038919;28;20061;-80
2021/06/14 10:14:59;;;;;;;5.15;1.85;;;;;;;;;;5038794;28;20033;-77
2021/06/14 10:17:38;;;;;;;4.60;2.35;;;;;;;;;;5036073;28;20037;-75
2021/06/14 10:20:22;;;;;;;9.00;2.47;;;;;;;;;;5036051;28;20086;-77
2021/06/14 10:22:49;;;;;;;3.40;2.10;;;;;;;;;;5035903;28;20029;-78
2021/06/14 10:25:16;;;;;;;11.02;2.45;;;;;;;;;;5039891;28;20235;-79
2021/06/14 10:27:44;;;;;;;5.03;2.33;;;;;;;;;;5043403;28;20037;-78
2021/06/14 10:30:13;;;;;;;4.30;2.05;;;;;;;;;;5040129;28;20467;-78
2021/06/14 10:32:41;;;;;;;8.43;2.08;;;;;;;;;;5039713;28;20057;-77
2021/06/14 10:35:08;;;;;;;7.18;2.05;;;;;;;;;;5057995;28;20033;-81
2021/06/14 10:37:41;;;;;;;5.20;2.13;;;;;;;;;;5061603;28;20410;-80
2021/06/14 10:40:09;;;;;;;4.68;2.47;;;;;;;;;;5060840;28;20048;-80
2021/06/14 10:42:34;;;;;;;4.40;2.22;;;;;;;;;;5059957;28;20082;-80
2021/06/14 10:45:00;;;;;;;6.75;2.35;;;;;;;;;;5060162;28;20049;-83
2021/06/14 10:47:30;;;;;;;4.35;2.40;;;;;;;;;;5063225;28;20510;-82
2021/06/14 10:49:56;;;;;;;4.30;1.98;;;;;;;;;;5062230;28;20055;-82
2021/06/14 10:52:22;;;;;;;4.90;2.42;;;;;;;;;;5062958;28;20391;-80
2021/06/14 10:54:49;;;;;;;5.88;2.70;;;;;;;;;;5070467;28;20088;-80
2021/06/14 10:57:14;;;;;;;5.75;2.03;;;;;;;;;;5070651;28;20064;-80
2021/06/14 10:59:45;;;;;;;7.40;2.25;;;;;;;;;;5068954;28;20096;-80
2021/06/14 11:02:13;;;;;;;7.85;2.50;;;;;;;;;;5051713;28;20123;-80
2021/06/14 11:04:39;;;;;;;5.72;1.90;;;;;;;;;;5060532;28;20041;-80
2021/06/14 11:07:05;;;;;;;6.20;2.47;;;;;;;;;;5050508;28;20029;-80
2021/06/14 11:09:42;;;;;;;3.35;1.90;;;;;;;;;;5050628;28;20120;-80
2021/06/14 11:12:09;;;;;;;7.53;3.38;;;;;;;;;;5050515;28;20042;-80
2021/06/14 11:14:37;;;;;;;6.85;2.17;;;;;;;;;;5050031;28;20061;-80
2021/06/14 11:17:26;;;;;;;4.35;2.08;;;;;;;;;;5050674;28;20037;-80
2021/06/14 11:20:04;;;;;;;2.40;1.63;;;;;;;;;;5053596;28;20037;-80
2021/06/14 11:22:34;;;;;;;4.03;1.90;;;;;;;;;;5052549;28;20076;-80
2021/06/14 11:24:59;;;;;;;4.10;1.70;;;;;;;;;;5051601;28;20041;-80
2021/06/14 11:27:37;;;;;;;3.35;1.85;;;;;;;;;;5053347;28;20092;-80
2021/06/14 11:30:15;;;;;;;3.63;1.77;;;;;;;;;;5049605;28;20391;-80
2021/06/14 11:32:41;;;;;;;3.72;1.65;;;;;;;;;;5050233;28;20063;-80
2021/06/14 11:35:07;;;;;;;4.63;1.95;;;;;;;;;;5067547;28;20036;-80
2021/06/14 11:37:45;;;;;;;5.15;1.77;;;;;;;;;;5068146;28;20402;-80
2021/06/14 11:40:14;;;;;;;5.00;1.90;;;;;;;;;;5068390;28;20044;-80
2021/06/14 11:42:46;;;;;;;7.78;1.65;;;;;;;;;;5070599;28;20043;-80
2021/06/14 11:45:32;;;;;;;4.18;1.98;;;;;;;;;;5066304;28;20045;-80
2021/06/14 11:48:02;;;;;;;8.50;2.15;;;;;;;;;;5066532;28;20056;-80
2021/06/14 11:50:30;;;;;;;3.33;1.60;;;;;;;;;;5066251;28;20482;-80
2021/06/14 11:53:01;;;;;;;2.17;1.30;;;;;;;;;;5059285;28;20480;-80
2021/06/14 11:55:29;;;;;;;4.93;1.48;;;;;;;;;;5044274;28;20029;-80
2021/06/14 11:57:57;;;;;;;3.50;1.60;;;;;;;;;;5046324;28;20033;-80
2021/06/14 12:00:28;;;;;;;3.25;1.73;;;;;;;;;;5043593;28;20056;-80
2021/06/14 12:02:54;;;;;;;11.65;1.52;;;;;;;;;;5046517;28;20108;-80
2021/06/14 12:05:33;;;;;;;3.67;1.70;;;;;;;;;;5066362;28;20097;-80
2021/06/14 12:07:59;;;;;;;2.28;1.50;;;;;;;;;;5064414;28;20036;-80
2021/06/14 12:10:25;;;;;;;4.20;1.60;;;;;;;;;;5066273;28;20044;-80
2021/06/14 12:13:02;;;;;;;6.28;1.70;;;;;;;;;;5065067;28;20056;-79
2021/06/14 12:15:28;;;;;;;8.85;2.42;;;;;;;;;;5067039;28;20037;-80
2021/06/14 12:17:53;;;;;;;3.97;1.50;;;;;;;;;;5066620;28;20025;-80
2021/06/14 12:20:26;;;;;;;5.13;1.75;;;;;;;;;;5069321;28;20040;-80
2021/06/14 12:23:00;;;;;;;3.25;1.58;;;;;;;;;;5067446;28;20020;-80
2021/06/14 12:25:26;;;;;;;2.63;1.23;;;;;;;;;;5068700;28;20052;-80
2021/06/14 12:28:03;;;;;;;4.90;1.70;;;;;;;;;;5066679;28;20110;-80
2021/06/14 12:30:29;;;;;;;5.15;1.90;;;;;;;;;;5068677;28;20041;-80
2021/06/14 12:32:55;;;;;;;8.05;1.60;;;;;;;;;;5067935;28;20412;-80
2021/06/14 12:35:21;;;;;;;4.25;1.60;;;;;;;;;;5048622;28;20100;-80
2021/06/14 12:37:47;;;;;;;4.32;1.70;;;;;;;;;;5049019;28;20073;-80
2021/06/14 12:40:16;;;;;;;4.03;2.13;;;;;;;;;;5047916;28;20041;-80
2021/06/14 12:42:42;;;;;;;3.28;1.60;;;;;;;;;;5048486;28;20014;-80
2021/06/14 12:45:09;;;;;;;4.13;1.60;;;;;;;;;;5041853;28;20080;-80
2021/06/14 12:47:39;;;;;;;4.47;1.75;;;;;;;;;;5044873;28;20037;-80
2021/06/14 12:50:05;;;;;;;5.75;2.17;;;;;;;;;;5048053;28;20048;-80
2021/06/14 12:52:31;;;;;;;2.50;1.58;;;;;;;;;;5046938;28;20041;-80
2021/06/14 12:54:58;;;;;;;7.20;1.58;;;;;;;;;;5050745;28;20041;-80
2021/06/14 12:57:39;;;;;;;8.30;1.90;;;;;;;;;;5057881;28;20018;-80
2021/06/14 13:00:31;;;;;;;7.32;1.70;;;;;;;;;;5055611;28;20034;-80
2021/06/14 13:02:59;;;;;;;4.40;1.80;;;;;;;;;;5055169;28;20049;-80
2021/06/14 13:05:32;;;;;;;4.25;2.33;;;;;;;;;;5056470;28;20033;-81
2021/06/14 13:08:00;;;;;;;6.47;1.92;;;;;;;;;;5055271;28;20040;-80
2021/06/14 13:10:29;;;;;;;6.68;1.92;;;;;;;;;;5057729;28;20033;-80
2021/06/14 13:12:58;;;;;;;3.35;1.45;;;;;;;;;;5064776;28;20013;-80
2021/06/14 13:15:30;;;;;;;2.90;1.60;;;;;;;;;;5060816;28;20100;-80
2021/06/14 13:17:56;;;;;;;2.97;1.58;;;;;;;;;;5062840;28;20021;-80
2021/06/14 13:20:33;;;;;;;3.17;1.63;;;;;;;;;;5059483;28;20044;-78
2021/06/14 13:23:10;;;;;;;4.10;1.83;;;;;;;;;;5062270;28;20039;-79
2021/06/14 13:25:37;;;;;;;5.00;1.85;;;;;;;;;;5065784;28;20033;-79
2021/06/14 13:28:03;;;;;;;7.72;1.98;;;;;;;;;;5066574;28;20032;-78
2021/06/14 13:31:21;;;;;;;7.20;1.92;;;;;;;;;;5055068;28;20029;-79
2021/06/14 13:34:06;;;;;;;3.63;1.50;;;;;;;;;;5059064;28;20052;-79
2021/06/14 13:36:39;;;;;;;5.30;1.63;;;;;;;;;;5054262;28;20044;-78
2021/06/14 13:39:18;;;;;;;2.75;1.60;;;;;;;;;;5057768;28;20086;-78
2021/06/14 13:41:47;;;;;;;4.00;1.30;;;;;;;;;;5057288;28;20612;-78
2021/06/14 13:44:15;;;;;;;3.65;1.42;;;;;;;;;;5056998;28;20053;-78
2021/06/14 13:46:46;;;;;;;4.28;1.70;;;;;;;;;;5054581;28;20089;-78
2021/06/14 13:49:12;;;;;;;6.90;1.50;;;;;;;;;;5055660;28;20037;-78
2021/06/14 13:51:38;;;;;;;7.43;1.25;;;;;;;;;;5055588;28;20360;-78
2021/06/14 13:54:13;;;;;;;3.10;1.30;;;;;;;;;;5053845;28;20033;-77
2021/06/14 13:56:38;;;;;;;2.70;1.17;;;;;;;;;;5054706;28;20032;-78
2021/06/14 13:59:04;;;;;;;4.63;1.35;;;;;;;;;;5054382;28;20037;-78
2021/06/14 14:01:39;;;;;;;3.50;1.60;;;;;;;;;;5059753;28;20040;-78
2021/06/14 14:04:09;;;;;;;5.47;1.40;;;;;;;;;;5046795;28;20078;-78
2021/06/14 14:06:35;;;;;;;2.08;1.33;;;;;;;;;;5040120;28;20072;-79
2021/06/14 14:09:03;;;;;;;2.85;1.35;;;;;;;;;;5047581;28;20041;-78
2021/06/14 14:11:29;;;;;;;3.10;1.83;;;;;;;;;;5050595;28;20037;-78
2021/06/14 14:14:00;;;;;;;4.75;1.42;;;;;;;;;;5045927;28;20034;-79
2021/06/14 14:16:26;;;;;;;4.60;1.77;;;;;;;;;;5042834;28;20033;-77
2021/06/14 14:18:51;;;;;;;3.03;1.58;;;;;;;;;;5017368;28;20033;-76
2021/06/14 14:21:17;;;;;;;2.72;1.80;;;;;;;;;;5035173;28;20036;-76
2021/06/14 14:23:42;;;;;;;6.20;2.05;;;;;;;;;;5036663;28;20470;-76
2021/06/14 14:26:08;;;;;;;5.63;1.90;;;;;;;;;;5048550;28;20091;-76
2021/06/14 14:28:33;;;;;;;2.85;1.52;;;;;;;;;;5051038;28;20455;-77
2021/06/14 14:30:59;;;;;;;3.20;2.10;;;;;;;;;;5052077;28;20116;-77
2021/06/14 14:33:25;;;;;;;5.45;1.80;;;;;;;;;;5054331;28;20417;-77
2021/06/14 14:36:07;;;;;;;7.18;1.63;;;;;;;;;;5035456;28;20037;-77
2021/06/14 14:38:34;;;;;;;9.07;1.80;;;;;;;;;;5034850;28;20037;-77
2021/06/14 14:41:03;;;;;;;9.20;2.05;;;;;;;;;;5033777;28;20057;-77
2021/06/14 14:43:28;;;;;;;9.48;1.85;;;;;;;;;;5034639;28;20485;-76
2021/06/14 14:45:54;;;;;;;6.35;1.70;;;;;;;;;;5034350;28;20041;-77
2021/06/14 14:48:20;;;;;;;5.90;2.10;;;;;;;;;;5034720;28;20037;-77
2021/06/14 14:50:45;;;;;;;6.70;1.88;;;;;;;;;;5033210;28;20626;-77
2021/06/14 14:53:16;;;;;;;4.47;1.88;;;;;;;;;;5034366;28;20104;-77